Blue Ridge, New York
Current Conditions -  °F | °C
As of 10:15 AM on Saturday 25 Oct 2014 (Local Time) from K6B0 Reporting Station
Clear Clear  
Wind Chill: 10°   Ceiling: Unl
Heat Index: 10°   Visibility: 10mi
Dew Point:   Wind: 12mph
Humidity: 75%   Direction: 200°SSW
Pressure: 29.76"   Gusts: NA
Location:  43.8504°N, 73.7678°W
Report Text: K6B0 251415Z AUTO 20010KT 10SM CLR 10/06 A2976 RMK AO2 T01040061
Loading
Personal Weather Stations






























Interactive Weather Map
Tropical Storm Tracking
New forecast layout! Learn more

10-Day Weather Forecast

Advertisements
Track Severe Weather on mobile